Time;durP1;ratioP1;P1;durP2;ratioP2;P2;SDS_P1;SDS_P2;PMS_P1;PMS_P2;Temp;Humidity;BMP_temperature;BMP_pressure;BME280_temperature;BME280_humidity;BME280_pressure;Samples;Min_cycle;Max_cycle;Signal;HPM_P1;HPM_P2
2022/12/26 00:00:52;;;;;;;15.80;6.10;;;;;;;;;;5163211;27;20310;-73
2022/12/26 00:03:18;;;;;;;17.77;6.63;;;;;;;;;;5164590;27;20110;-73
2022/12/26 00:05:43;;;;;;;18.50;6.05;;;;;;;;;;5165285;27;20127;-73
2022/12/26 00:08:08;;;;;;;14.73;6.43;;;;;;;;;;5156372;27;20594;-75
2022/12/26 00:10:34;;;;;;;16.95;5.93;;;;;;;;;;5161307;27;20014;-74
2022/12/26 00:12:59;;;;;;;17.90;6.65;;;;;;;;;;5160714;27;20023;-75
2022/12/26 00:15:25;;;;;;;11.63;5.78;;;;;;;;;;5160930;27;20334;-72
2022/12/26 00:17:50;;;;;;;15.50;5.50;;;;;;;;;;5161713;27;20015;-74
2022/12/26 00:20:15;;;;;;;16.98;6.05;;;;;;;;;;5166028;27;20053;-73
2022/12/26 00:22:41;;;;;;;15.13;5.68;;;;;;;;;;5162924;27;20090;-73
2022/12/26 00:25:06;;;;;;;18.23;6.15;;;;;;;;;;5160435;27;20029;-73
2022/12/26 00:27:32;;;;;;;15.70;6.03;;;;;;;;;;5161934;27;20101;-73
2022/12/26 00:29:57;;;;;;;14.20;6.55;;;;;;;;;;5162477;27;20023;-75
2022/12/26 00:32:23;;;;;;;14.48;6.93;;;;;;;;;;5163061;27;20038;-73
2022/12/26 00:34:48;;;;;;;14.93;6.28;;;;;;;;;;5157649;27;20026;-72
2022/12/26 00:37:14;;;;;;;15.77;6.65;;;;;;;;;;5162139;27;20446;-73
2022/12/26 00:39:39;;;;;;;16.33;6.90;;;;;;;;;;5163158;27;20038;-73
2022/12/26 00:42:04;;;;;;;18.55;6.55;;;;;;;;;;5161415;27;20102;-73
2022/12/26 00:44:30;;;;;;;13.68;6.43;;;;;;;;;;5162822;27;20030;-73
2022/12/26 00:46:55;;;;;;;15.93;6.18;;;;;;;;;;5163166;27;20470;-73
2022/12/26 00:49:21;;;;;;;16.60;6.20;;;;;;;;;;5162008;27;20018;-73
2022/12/26 00:51:46;;;;;;;17.13;6.15;;;;;;;;;;5164381;27;20026;-75
2022/12/26 00:54:11;;;;;;;20.33;6.38;;;;;;;;;;5163803;27;20050;-74
2022/12/26 00:56:37;;;;;;;18.05;6.63;;;;;;;;;;5161486;27;20060;-73
2022/12/26 00:59:02;;;;;;;18.38;6.28;;;;;;;;;;5160583;27;20030;-73
2022/12/26 01:01:31;;;;;;;18.48;6.93;;;;;;;;;;5163828;27;20018;-73
2022/12/26 01:03:57;;;;;;;18.95;6.35;;;;;;;;;;5160753;27;20023;-74
2022/12/26 01:06:22;;;;;;;15.20;6.75;;;;;;;;;;5161166;27;20040;-75
2022/12/26 01:08:48;;;;;;;17.42;7.47;;;;;;;;;;5159582;27;20572;-73
2022/12/26 01:11:38;;;;;;;19.17;6.70;;;;;;;;;;5161380;27;20322;-74
2022/12/26 01:14:00;;;;;;;14.38;6.57;;;;;;;;;;5161348;27;20057;-76
2022/12/26 01:16:26;;;;;;;23.25;7.05;;;;;;;;;;5158701;27;20536;-74
2022/12/26 01:18:51;;;;;;;14.32;6.50;;;;;;;;;;5160162;27;20019;-73
2022/12/26 01:21:16;;;;;;;16.25;6.57;;;;;;;;;;5161122;27;20014;-75
2022/12/26 01:23:42;;;;;;;17.63;7.03;;;;;;;;;;5158013;27;20489;-73
2022/12/26 01:26:07;;;;;;;21.08;6.90;;;;;;;;;;5153674;27;20034;-74
2022/12/26 01:28:33;;;;;;;22.10;6.88;;;;;;;;;;5160031;27;20136;-75
2022/12/26 01:31:05;;;;;;;22.42;7.15;;;;;;;;;;5163036;27;20022;-75
2022/12/26 01:33:31;;;;;;;19.10;6.47;;;;;;;;;;5162345;27;20299;-74
2022/12/26 01:35:57;;;;;;;19.95;6.63;;;;;;;;;;5163362;27;20054;-73
2022/12/26 01:38:22;;;;;;;18.88;7.22;;;;;;;;;;5165222;27;20030;-75
2022/12/26 01:41:15;;;;;;;20.15;7.20;;;;;;;;;;5160442;27;20174;-73
2022/12/26 01:43:57;;;;;;;14.93;6.85;;;;;;;;;;5157753;27;20430;-73
2022/12/26 01:46:43;;;;;;;16.70;6.45;;;;;;;;;;5158821;27;20022;-74
2022/12/26 01:49:20;;;;;;;20.50;7.47;;;;;;;;;;5160806;27;20054;-74
2022/12/26 01:51:51;;;;;;;17.42;7.32;;;;;;;;;;5157503;27;20760;-74
2022/12/26 01:54:17;;;;;;;18.35;7.32;;;;;;;;;;5153643;27;20026;-74
2022/12/26 01:56:44;;;;;;;19.48;7.30;;;;;;;;;;5158203;27;20066;-74
2022/12/26 01:59:14;;;;;;;18.60;7.25;;;;;;;;;;5157533;27;20025;-74
2022/12/26 02:01:42;;;;;;;15.90;7.38;;;;;;;;;;5158991;27;20014;-74
2022/12/26 02:06:56;;;;;;;19.23;7.82;;;;;;;;;;5159372;27;20071;-75
2022/12/26 02:09:22;;;;;;;20.17;7.35;;;;;;;;;;5161487;27;20109;-75
2022/12/26 02:12:11;;;;;;;15.75;7.30;;;;;;;;;;5159825;27;20030;-74
2022/12/26 02:14:38;;;;;;;14.40;7.30;;;;;;;;;;5160453;27;20029;-74
2022/12/26 02:17:04;;;;;;;19.52;7.45;;;;;;;;;;5157792;27;20027;-74
2022/12/26 02:19:41;;;;;;;17.50;7.18;;;;;;;;;;5161519;27;20085;-74
2022/12/26 02:22:18;;;;;;;14.55;6.85;;;;;;;;;;5162845;27;20090;-75
2022/12/26 02:24:53;;;;;;;14.98;7.00;;;;;;;;;;5153509;27;20027;-76
2022/12/26 02:27:50;;;;;;;15.95;7.20;;;;;;;;;;5157507;27;20022;-74
2022/12/26 02:30:40;;;;;;;16.65;7.32;;;;;;;;;;5152655;27;20030;-74
2022/12/26 02:33:23;;;;;;;20.07;7.27;;;;;;;;;;5161726;27;20053;-76
2022/12/26 02:36:00;;;;;;;18.33;7.35;;;;;;;;;;5159062;27;20135;-74
2022/12/26 02:38:58;;;;;;;19.33;7.63;;;;;;;;;;5158705;27;20046;-74
2022/12/26 02:41:42;;;;;;;22.20;7.65;;;;;;;;;;5127647;27;20038;-74
2022/12/26 02:47:31;;;;;;;15.85;6.55;;;;;;;;;;5121655;27;20047;-73
2022/12/26 03:13:21;;;;;;;15.35;7.30;;;;;;;;;;5155984;27;20067;-74
2022/12/26 03:19:04;;;;;;;18.60;7.32;;;;;;;;;;5143377;27;20066;-74
2022/12/26 03:21:36;;;;;;;16.63;6.75;;;;;;;;;;5139787;27;20033;-74
2022/12/26 03:24:01;;;;;;;16.95;7.13;;;;;;;;;;5160913;27;20053;-73
2022/12/26 03:26:41;;;;;;;19.85;7.20;;;;;;;;;;5154901;27;20023;-73
2022/12/26 03:32:08;;;;;;;18.63;7.15;;;;;;;;;;5160323;27;20029;-76
2022/12/26 03:34:40;;;;;;;15.02;6.97;;;;;;;;;;5157322;27;20205;-74
2022/12/26 03:37:40;;;;;;;21.50;7.50;;;;;;;;;;5141307;27;20034;-74
2022/12/26 04:44:23;;;;;;;18.02;6.68;;;;;;;;;;5159122;27;20095;-74
2022/12/26 04:46:50;;;;;;;15.73;6.83;;;;;;;;;;5163875;27;20124;-73
2022/12/26 04:52:03;;;;;;;16.17;6.78;;;;;;;;;;5165417;27;20026;-73
2022/12/26 04:54:29;;;;;;;17.90;6.88;;;;;;;;;;5156946;27;20129;-73
2022/12/26 04:56:54;;;;;;;20.48;7.18;;;;;;;;;;5157894;27;20424;-74
2022/12/26 04:59:21;;;;;;;18.83;6.78;;;;;;;;;;5156324;27;20022;-73
2022/12/26 05:10:20;;;;;;;17.75;6.97;;;;;;;;;;5159558;27;20051;-74
2022/12/26 05:12:46;;;;;;;16.90;7.70;;;;;;;;;;5160769;27;20034;-74
2022/12/26 05:15:11;;;;;;;18.75;7.20;;;;;;;;;;5161492;27;20027;-74
2022/12/26 05:28:58;;;;;;;16.17;6.72;;;;;;;;;;5134691;27;20039;-74
2022/12/26 05:31:24;;;;;;;19.88;7.50;;;;;;;;;;5159144;27;20068;-74
2022/12/26 05:36:44;;;;;;;20.08;7.05;;;;;;;;;;5157781;27;20083;-73
2022/12/26 05:39:09;;;;;;;17.65;7.25;;;;;;;;;;5157050;27;20105;-75
2022/12/26 05:41:36;;;;;;;13.73;6.90;;;;;;;;;;5156021;27;20061;-74
2022/12/26 05:44:02;;;;;;;19.30;6.70;;;;;;;;;;5157346;27;20038;-73
2022/12/26 05:46:27;;;;;;;18.33;6.97;;;;;;;;;;5157271;27;20022;-74
2022/12/26 05:48:53;;;;;;;18.58;7.20;;;;;;;;;;5161168;27;20094;-75
2022/12/26 05:51:18;;;;;;;16.65;6.53;;;;;;;;;;5159223;27;20040;-74
2022/12/26 05:53:43;;;;;;;16.02;6.55;;;;;;;;;;5160406;27;20441;-74
2022/12/26 05:56:11;;;;;;;19.63;6.82;;;;;;;;;;5161013;27;20068;-74
2022/12/26 05:58:37;;;;;;;16.90;6.55;;;;;;;;;;5159861;27;20030;-74
2022/12/26 06:01:08;;;;;;;17.92;6.78;;;;;;;;;;5161859;27;20049;-74
2022/12/26 06:03:35;;;;;;;20.38;6.55;;;;;;;;;;5154429;27;20031;-74
2022/12/26 06:06:00;;;;;;;17.70;6.57;;;;;;;;;;5159843;27;20025;-75
2022/12/26 06:08:26;;;;;;;17.48;6.43;;;;;;;;;;5158994;27;20050;-75
2022/12/26 06:10:51;;;;;;;20.05;6.88;;;;;;;;;;5158646;27;20050;-74
2022/12/26 06:13:16;;;;;;;17.35;7.40;;;;;;;;;;5155635;27;20406;-74
2022/12/26 06:15:42;;;;;;;18.02;6.78;;;;;;;;;;5157375;27;20526;-74
2022/12/26 06:18:08;;;;;;;19.27;6.80;;;;;;;;;;5153219;27;20026;-74
2022/12/26 06:20:33;;;;;;;18.23;7.28;;;;;;;;;;5156071;27;20022;-74
2022/12/26 06:22:58;;;;;;;16.20;6.97;;;;;;;;;;5156911;27;20038;-74
2022/12/26 06:25:24;;;;;;;19.85;6.90;;;;;;;;;;5159939;27;20030;-74
2022/12/26 06:27:49;;;;;;;12.57;6.95;;;;;;;;;;5157380;27;20023;-74
2022/12/26 06:30:15;;;;;;;14.10;6.63;;;;;;;;;;5157652;27;20449;-75
2022/12/26 06:32:40;;;;;;;16.45;6.90;;;;;;;;;;5163704;27;20022;-74
2022/12/26 06:35:06;;;;;;;16.00;6.72;;;;;;;;;;5159664;27;20075;-75
2022/12/26 06:37:32;;;;;;;16.45;7.35;;;;;;;;;;5159443;27;20090;-75
2022/12/26 06:39:57;;;;;;;16.40;7.38;;;;;;;;;;5156006;27;20034;-74
2022/12/26 06:42:23;;;;;;;14.80;7.18;;;;;;;;;;5158605;27;20047;-74
2022/12/26 06:44:48;;;;;;;18.88;7.38;;;;;;;;;;5156380;27;20377;-75
2022/12/26 06:47:13;;;;;;;15.60;7.20;;;;;;;;;;5161254;27;20078;-75
2022/12/26 06:49:39;;;;;;;18.40;7.50;;;;;;;;;;5160318;27;20318;-74
2022/12/26 06:52:04;;;;;;;17.10;7.65;;;;;;;;;;5159957;27;20029;-75
2022/12/26 06:54:30;;;;;;;16.42;7.72;;;;;;;;;;5161483;27;20049;-75
2022/12/26 06:56:55;;;;;;;23.50;8.43;;;;;;;;;;5156066;27;20114;-74
2022/12/26 06:59:20;;;;;;;21.67;8.25;;;;;;;;;;5157847;27;20384;-74
2022/12/26 07:01:46;;;;;;;22.52;8.18;;;;;;;;;;5160295;27;20026;-74
2022/12/26 07:04:12;;;;;;;24.42;8.65;;;;;;;;;;5157306;27;20031;-73
2022/12/26 07:06:39;;;;;;;20.50;8.55;;;;;;;;;;5159060;27;20093;-75
2022/12/26 07:09:08;;;;;;;18.35;7.97;;;;;;;;;;5160617;27;20043;-75
2022/12/26 07:11:36;;;;;;;21.10;8.23;;;;;;;;;;5158490;27;20059;-76
2022/12/26 07:14:03;;;;;;;26.08;8.98;;;;;;;;;;5160664;27;20372;-75
2022/12/26 07:16:29;;;;;;;27.63;9.15;;;;;;;;;;5160043;27;20258;-76
2022/12/26 07:18:56;;;;;;;24.25;8.75;;;;;;;;;;5157652;27;20049;-74
2022/12/26 07:21:22;;;;;;;21.75;8.57;;;;;;;;;;5158285;27;20098;-74
2022/12/26 07:23:48;;;;;;;22.23;9.20;;;;;;;;;;5163763;27;20031;-74
2022/12/26 07:26:14;;;;;;;26.35;10.13;;;;;;;;;;5163561;27;20030;-75
2022/12/26 07:28:39;;;;;;;20.85;8.75;;;;;;;;;;5160028;27;20026;-74
2022/12/26 07:31:05;;;;;;;26.08;8.90;;;;;;;;;;5164584;27;20023;-75
2022/12/26 07:33:31;;;;;;;24.70;9.05;;;;;;;;;;5162119;27;20048;-76
2022/12/26 07:36:04;;;;;;;21.35;8.52;;;;;;;;;;5160870;27;20022;-74
2022/12/26 07:38:31;;;;;;;23.20;8.48;;;;;;;;;;5164801;27;20022;-70
2022/12/26 07:40:57;;;;;;;24.73;8.57;;;;;;;;;;5157799;27;20019;-73
2022/12/26 07:43:23;;;;;;;24.00;8.35;;;;;;;;;;5160380;27;20226;-78
2022/12/26 07:45:49;;;;;;;25.90;8.70;;;;;;;;;;5162944;27;20027;-74
2022/12/26 07:48:14;;;;;;;21.90;8.30;;;;;;;;;;5151354;27;20045;-73
2022/12/26 07:50:40;;;;;;;18.83;9.02;;;;;;;;;;5153327;27;20575;-73
2022/12/26 07:53:05;;;;;;;17.33;8.90;;;;;;;;;;5153655;27;20539;-72
2022/12/26 07:55:31;;;;;;;20.40;8.57;;;;;;;;;;5153019;27;20023;-72
2022/12/26 07:57:56;;;;;;;20.20;8.50;;;;;;;;;;5153856;27;20019;-73
2022/12/26 08:00:22;;;;;;;21.65;8.40;;;;;;;;;;5154250;27;20023;-71
2022/12/26 08:02:49;;;;;;;20.58;8.35;;;;;;;;;;5154934;27;20031;-73
2022/12/26 08:05:16;;;;;;;21.17;8.90;;;;;;;;;;5161782;27;20090;-84
2022/12/26 08:07:41;;;;;;;18.17;8.15;;;;;;;;;;5160924;27;20271;-72
2022/12/26 08:10:07;;;;;;;18.55;8.55;;;;;;;;;;5165703;27;20014;-77
2022/12/26 08:12:32;;;;;;;18.50;7.78;;;;;;;;;;5163947;27;20014;-73
2022/12/26 08:14:58;;;;;;;20.73;9.48;;;;;;;;;;5164969;27;20031;-75
2022/12/26 08:17:23;;;;;;;17.42;8.60;;;;;;;;;;5163830;27;20091;-75
2022/12/26 08:19:49;;;;;;;20.73;8.25;;;;;;;;;;5147209;27;20021;-77
2022/12/26 08:22:14;;;;;;;18.95;8.23;;;;;;;;;;5148917;27;20237;-75
2022/12/26 08:24:40;;;;;;;13.93;7.75;;;;;;;;;;5137315;27;20027;-75
2022/12/26 08:27:05;;;;;;;13.02;7.40;;;;;;;;;;5146540;27;20023;-74
2022/12/26 08:29:31;;;;;;;15.05;7.13;;;;;;;;;;5161046;27;20360;-73
2022/12/26 08:31:56;;;;;;;12.40;7.00;;;;;;;;;;5163357;27;20025;-73
2022/12/26 08:34:21;;;;;;;14.93;6.88;;;;;;;;;;5159800;27;20031;-76
2022/12/26 08:36:50;;;;;;;15.82;7.95;;;;;;;;;;5164127;27;20014;-76
2022/12/26 08:39:16;;;;;;;22.17;8.02;;;;;;;;;;5164001;27;20437;-74
2022/12/26 08:41:42;;;;;;;18.83;8.48;;;;;;;;;;5155338;27;20031;-73
2022/12/26 08:44:09;;;;;;;19.38;8.40;;;;;;;;;;5152524;27;20043;-73
2022/12/26 08:46:34;;;;;;;21.08;8.80;;;;;;;;;;5152432;27;20038;-72
2022/12/26 08:49:00;;;;;;;18.70;8.40;;;;;;;;;;5152446;27;20826;-71
2022/12/26 08:51:25;;;;;;;19.75;8.55;;;;;;;;;;5156942;27;20023;-81
2022/12/26 08:53:53;;;;;;;20.13;8.40;;;;;;;;;;5158261;27;20049;-73
2022/12/26 08:56:25;;;;;;;19.13;8.23;;;;;;;;;;5155966;27;20026;-73
2022/12/26 08:58:50;;;;;;;21.45;8.48;;;;;;;;;;5137276;27;20051;-75
2022/12/26 09:01:22;;;;;;;21.85;8.63;;;;;;;;;;5150887;27;20027;-75
2022/12/26 09:03:54;;;;;;;22.13;7.45;;;;;;;;;;5151806;27;20034;-73
2022/12/26 09:06:20;;;;;;;13.20;7.63;;;;;;;;;;5151446;27;20062;-74
2022/12/26 09:08:46;;;;;;;18.48;8.10;;;;;;;;;;5152433;27;20054;-72
2022/12/26 09:11:14;;;;;;;13.15;7.55;;;;;;;;;;5152746;27;20019;-74
2022/12/26 09:13:41;;;;;;;21.10;8.43;;;;;;;;;;5152518;27;20022;-76
2022/12/26 09:16:09;;;;;;;15.40;7.72;;;;;;;;;;5153042;27;20023;-71
2022/12/26 09:18:35;;;;;;;18.17;8.43;;;;;;;;;;5152885;27;20485;-71
2022/12/26 09:21:05;;;;;;;18.02;7.78;;;;;;;;;;5153008;27;20031;-72
2022/12/26 09:23:32;;;;;;;19.98;7.40;;;;;;;;;;5154828;27;20068;-75
2022/12/26 09:26:11;;;;;;;14.60;7.82;;;;;;;;;;5155513;27;20038;-78
2022/12/26 09:28:37;;;;;;;17.38;7.75;;;;;;;;;;5152107;27;20065;-75
2022/12/26 09:31:05;;;;;;;15.50;7.82;;;;;;;;;;5152975;27;20397;-71
2022/12/26 09:33:37;;;;;;;18.85;8.23;;;;;;;;;;5151651;27;20109;-71
2022/12/26 09:36:17;;;;;;;19.17;8.05;;;;;;;;;;5151663;27;20026;-70
2022/12/26 09:38:43;;;;;;;13.98;7.60;;;;;;;;;;5151734;27;20030;-69
2022/12/26 09:41:33;;;;;;;16.45;8.52;;;;;;;;;;5151819;27;20057;-72
2022/12/26 09:44:24;;;;;;;15.27;7.88;;;;;;;;;;5151475;27;20111;-72
2022/12/26 09:47:04;;;;;;;16.73;8.00;;;;;;;;;;5153371;27;20493;-72
2022/12/26 09:49:35;;;;;;;17.25;8.15;;;;;;;;;;5152878;27;20027;-71
2022/12/26 09:52:13;;;;;;;19.50;7.35;;;;;;;;;;5151511;27;20034;-71
2022/12/26 09:54:46;;;;;;;16.23;7.68;;;;;;;;;;5149763;27;20486;-71
2022/12/26 09:57:25;;;;;;;16.52;6.97;;;;;;;;;;5150369;27;20405;-73
2022/12/26 09:59:57;;;;;;;16.25;7.68;;;;;;;;;;5151293;27;20051;-71
2022/12/26 10:02:24;;;;;;;14.25;7.25;;;;;;;;;;5151597;27;20029;-72
2022/12/26 10:04:50;;;;;;;12.55;6.97;;;;;;;;;;5153122;27;20077;-70
2022/12/26 10:07:37;;;;;;;18.27;8.30;;;;;;;;;;5151534;27;20026;-71
2022/12/26 10:10:08;;;;;;;16.65;6.80;;;;;;;;;;5154672;27;20026;-75
2022/12/26 10:12:52;;;;;;;17.70;6.53;;;;;;;;;;5153715;27;20030;-74
2022/12/26 10:15:34;;;;;;;17.00;6.90;;;;;;;;;;5150670;27;20018;-75
2022/12/26 10:18:15;;;;;;;16.55;6.35;;;;;;;;;;5150631;27;20026;-74
2022/12/26 10:20:51;;;;;;;16.38;6.10;;;;;;;;;;5151193;27;20030;-75
2022/12/26 10:23:29;;;;;;;13.50;6.53;;;;;;;;;;5150902;27;20019;-74
2022/12/26 10:26:09;;;;;;;11.10;5.97;;;;;;;;;;5151043;27;20473;-76
2022/12/26 10:28:42;;;;;;;15.90;6.40;;;;;;;;;;5150806;27;20018;-75
2022/12/26 10:31:20;;;;;;;11.85;5.85;;;;;;;;;;5150797;27;20526;-75
2022/12/26 10:33:51;;;;;;;16.90;6.88;;;;;;;;;;5150378;27;20022;-75
2022/12/26 10:36:28;;;;;;;18.25;5.88;;;;;;;;;;5150784;27;20030;-73
2022/12/26 10:38:57;;;;;;;14.02;6.65;;;;;;;;;;5150776;27;20423;-77
2022/12/26 10:41:26;;;;;;;17.67;5.93;;;;;;;;;;5150828;27;20022;-72
2022/12/26 10:43:53;;;;;;;27.73;6.40;;;;;;;;;;5150735;27;20122;-76
2022/12/26 10:46:38;;;;;;;14.90;5.22;;;;;;;;;;5150613;27;20026;-74
2022/12/26 10:49:04;;;;;;;11.82;5.45;;;;;;;;;;5150146;27;20241;-75
2022/12/26 10:51:30;;;;;;;13.18;6.00;;;;;;;;;;5150464;27;20679;-73
2022/12/26 10:53:55;;;;;;;12.10;5.40;;;;;;;;;;5150785;27;20037;-74
2022/12/26 10:56:22;;;;;;;14.10;5.88;;;;;;;;;;5150806;27;20039;-76
2022/12/26 10:59:03;;;;;;;11.70;5.07;;;;;;;;;;5149690;27;20436;-73
2022/12/26 11:01:39;;;;;;;12.68;4.65;;;;;;;;;;5154303;27;20026;-70
2022/12/26 11:04:21;;;;;;;13.50;4.75;;;;;;;;;;5155792;27;20056;-71
2022/12/26 11:06:51;;;;;;;14.55;4.38;;;;;;;;;;5151349;27;20065;-72
2022/12/26 11:09:38;;;;;;;11.20;4.25;;;;;;;;;;5150229;27;20026;-71
2022/12/26 11:12:04;;;;;;;15.63;4.32;;;;;;;;;;5137593;27;20018;-72
2022/12/26 11:14:37;;;;;;;8.27;3.80;;;;;;;;;;5147796;27;20027;-74
2022/12/26 11:17:10;;;;;;;13.15;4.07;;;;;;;;;;5129738;27;20394;-72
2022/12/26 11:19:38;;;;;;;11.57;3.95;;;;;;;;;;5138059;27;20030;-72
2022/12/26 11:22:26;;;;;;;11.82;4.00;;;;;;;;;;5150429;27;20015;-71
2022/12/26 11:25:13;;;;;;;11.13;3.90;;;;;;;;;;5149955;27;20027;-78
2022/12/26 11:27:51;;;;;;;10.40;4.55;;;;;;;;;;5136833;27;20083;-75
2022/12/26 11:30:20;;;;;;;12.32;3.80;;;;;;;;;;5143988;27;20475;-80
2022/12/26 11:33:08;;;;;;;11.13;4.60;;;;;;;;;;5129193;27;20486;-75
2022/12/26 11:35:36;;;;;;;8.52;4.28;;;;;;;;;;5106946;28;20111;-75
2022/12/26 11:38:12;;;;;;;8.68;3.70;;;;;;;;;;5128115;27;20027;-74
2022/12/26 11:41:30;;;;;;;9.85;3.92;;;;;;;;;;5127786;28;20031;-75
2022/12/26 11:43:32;;;;;;;11.07;3.92;;;;;;;;;;5127861;28;20050;-73
2022/12/26 11:45:58;;;;;;;11.70;4.45;;;;;;;;;;5129476;27;20474;-76
2022/12/26 11:48:25;;;;;;;8.20;3.33;;;;;;;;;;5129148;27;20037;-78
2022/12/26 11:50:52;;;;;;;9.38;3.63;;;;;;;;;;5129144;27;20501;-80
2022/12/26 11:53:20;;;;;;;11.57;3.40;;;;;;;;;;5129627;27;20027;-76
2022/12/26 11:56:03;;;;;;;8.52;3.40;;;;;;;;;;5128121;28;20027;-77
2022/12/26 11:58:30;;;;;;;14.98;3.58;;;;;;;;;;5129408;27;20019;-77
2022/12/26 12:00:58;;;;;;;12.65;3.85;;;;;;;;;;5129100;27;20069;-73
2022/12/26 12:03:40;;;;;;;11.45;3.60;;;;;;;;;;5127543;28;20620;-74
2022/12/26 12:06:19;;;;;;;13.35;3.88;;;;;;;;;;5129434;27;20031;-75
2022/12/26 12:08:50;;;;;;;9.88;3.85;;;;;;;;;;5129450;27;20030;-73
2022/12/26 12:11:31;;;;;;;14.88;4.18;;;;;;;;;;5131444;27;20022;-73
2022/12/26 12:14:05;;;;;;;;;;;;;;;;;;5153665;27;20083;-77
2022/12/26 12:16:44;;;;;;;12.80;4.32;;;;;;;;;;5153469;27;19911;-74
2022/12/26 12:19:33;;;;;;;9.30;3.53;;;;;;;;;;5152688;27;20520;-77
2022/12/26 12:22:17;;;;;;;15.88;3.97;;;;;;;;;;5153408;27;20033;-74
2022/12/26 12:25:09;;;;;;;8.60;3.58;;;;;;;;;;5153101;27;20025;-78
2022/12/26 12:28:01;;;;;;;11.27;4.20;;;;;;;;;;5152131;27;20023;-75
2022/12/26 12:30:47;;;;;;;12.90;4.00;;;;;;;;;;5150293;27;20035;-74
2022/12/26 12:33:12;;;;;;;10.68;3.72;;;;;;;;;;5153658;27;20478;-76
2022/12/26 12:36:00;;;;;;;14.38;4.13;;;;;;;;;;5156467;27;20055;-73
2022/12/26 12:38:29;;;;;;;12.45;4.05;;;;;;;;;;5160605;27;20026;-72
2022/12/26 12:41:03;;;;;;;12.68;3.97;;;;;;;;;;5154173;27;20038;-74
2022/12/26 12:43:32;;;;;;;13.93;4.00;;;;;;;;;;5153036;27;20092;-75
2022/12/26 12:46:11;;;;;;;9.60;3.92;;;;;;;;;;5153461;27;20519;-71
2022/12/26 12:49:03;;;;;;;9.90;3.92;;;;;;;;;;5152836;27;20054;-73
2022/12/26 12:51:42;;;;;;;14.18;4.10;;;;;;;;;;5153037;27;20031;-74
2022/12/26 12:54:07;;;;;;;11.32;3.78;;;;;;;;;;5152983;27;20038;-71
2022/12/26 12:56:53;;;;;;;11.55;3.65;;;;;;;;;;5152820;27;20023;-72
2022/12/26 13:00:00;;;;;;;10.85;3.53;;;;;;;;;;5152253;27;20490;-71
2022/12/26 13:02:40;;;;;;;16.05;4.13;;;;;;;;;;5128273;27;20038;-71
2022/12/26 13:05:40;;;;;;;10.75;4.00;;;;;;;;;;5152516;27;20075;-71
2022/12/26 13:08:16;;;;;;;11.65;3.40;;;;;;;;;;5148408;27;20045;-71
2022/12/26 13:10:59;;;;;;;10.25;3.33;;;;;;;;;;5152195;27;20125;-71
2022/12/26 13:14:07;;;;;;;9.93;3.53;;;;;;;;;;5152423;27;20122;-71
2022/12/26 13:16:50;;;;;;;12.68;3.67;;;;;;;;;;5137613;27;20625;-70
2022/12/26 13:19:19;;;;;;;14.85;3.90;;;;;;;;;;5152705;27;20095;-71
2022/12/26 13:21:46;;;;;;;14.52;3.50;;;;;;;;;;5152132;27;20041;-70
2022/12/26 13:24:33;;;;;;;10.88;3.58;;;;;;;;;;5152193;27;20030;-70
2022/12/26 13:27:03;;;;;;;9.38;3.35;;;;;;;;;;5152081;27;20029;-76
2022/12/26 13:29:43;;;;;;;12.93;3.42;;;;;;;;;;5153622;27;20022;-75
2022/12/26 13:32:25;;;;;;;14.32;3.55;;;;;;;;;;5145017;27;20104;-71
2022/12/26 13:34:54;;;;;;;8.18;3.45;;;;;;;;;;5147832;27;20019;-69
2022/12/26 13:37:37;;;;;;;10.77;3.63;;;;;;;;;;5131960;27;20023;-69
2022/12/26 13:40:24;;;;;;;10.60;3.55;;;;;;;;;;5137877;27;20493;-70
2022/12/26 13:45:50;;;;;;;11.60;3.92;;;;;;;;;;5151460;27;20033;-70
2022/12/26 13:48:16;;;;;;;10.73;3.70;;;;;;;;;;5147078;27;20027;-70
2022/12/26 13:50:45;;;;;;;12.63;3.80;;;;;;;;;;5130861;27;20027;-69
2022/12/26 13:53:23;;;;;;;12.27;3.67;;;;;;;;;;5130932;27;20027;-70
2022/12/26 13:55:53;;;;;;;9.43;3.60;;;;;;;;;;5130899;27;20360;-71
2022/12/26 13:58:31;;;;;;;9.98;3.70;;;;;;;;;;5130933;27;20098;-71
2022/12/26 14:01:26;;;;;;;8.93;3.42;;;;;;;;;;5130880;27;20071;-70
2022/12/26 14:04:00;;;;;;;11.50;3.70;;;;;;;;;;5128890;27;20479;-70
2022/12/26 14:06:40;;;;;;;9.40;3.78;;;;;;;;;;5129761;27;20038;-70
2022/12/26 14:09:21;;;;;;;11.07;4.00;;;;;;;;;;5130313;27;20062;-71
2022/12/26 14:12:05;;;;;;;11.20;4.00;;;;;;;;;;5129519;27;20035;-69
2022/12/26 14:14:41;;;;;;;12.70;4.22;;;;;;;;;;5130575;27;20054;-70
2022/12/26 14:17:14;;;;;;;9.90;4.03;;;;;;;;;;5130714;27;20027;-70
2022/12/26 14:20:01;;;;;;;8.05;3.85;;;;;;;;;;5134950;27;20026;-72
2022/12/26 14:22:44;;;;;;;15.18;4.25;;;;;;;;;;5146051;27;20023;-72
2022/12/26 14:25:25;;;;;;;7.82;3.58;;;;;;;;;;5128978;27;20368;-73
2022/12/26 14:27:56;;;;;;;13.00;4.22;;;;;;;;;;5137744;27;20533;-70
2022/12/26 14:30:39;;;;;;;10.00;3.80;;;;;;;;;;5152077;27;20034;-76
2022/12/26 14:33:16;;;;;;;8.95;3.58;;;;;;;;;;5169504;27;20018;-76
2022/12/26 14:36:09;;;;;;;11.02;3.90;;;;;;;;;;5150302;27;20037;-74
2022/12/26 14:39:00;;;;;;;8.75;3.65;;;;;;;;;;5150544;27;20030;-76
2022/12/26 14:44:35;;;;;;;6.75;3.50;;;;;;;;;;5145956;27;20708;-71
2022/12/26 14:47:02;;;;;;;11.50;3.53;;;;;;;;;;5148628;27;20038;-71
2022/12/26 14:49:30;;;;;;;9.10;3.10;;;;;;;;;;5148876;27;20406;-72
2022/12/26 14:52:20;;;;;;;11.85;3.33;;;;;;;;;;5148788;27;20030;-71
2022/12/26 14:54:46;;;;;;;8.27;3.45;;;;;;;;;;5151322;27;20023;-72
2022/12/26 14:57:44;;;;;;;12.43;3.25;;;;;;;;;;5150266;27;20037;-79
2022/12/26 15:00:31;;;;;;;13.02;3.25;;;;;;;;;;5154790;27;20378;-73
2022/12/26 15:03:00;;;;;;;11.10;3.28;;;;;;;;;;5158269;27;20042;-74
2022/12/26 15:05:31;;;;;;;7.68;3.38;;;;;;;;;;5160997;27;20038;-76
2022/12/26 15:08:02;;;;;;;9.43;3.33;;;;;;;;;;5149299;27;20023;-75
2022/12/26 15:10:46;;;;;;;8.98;3.30;;;;;;;;;;5150566;27;20666;-71
2022/12/26 15:13:36;;;;;;;10.43;3.28;;;;;;;;;;5150765;27;20106;-73
2022/12/26 15:16:20;;;;;;;7.63;3.08;;;;;;;;;;5150180;27;20027;-70
2022/12/26 15:18:48;;;;;;;8.43;3.33;;;;;;;;;;5150362;27;20023;-70
2022/12/26 15:21:21;;;;;;;11.80;3.28;;;;;;;;;;5150322;27;20030;-74
2022/12/26 15:24:20;;;;;;;7.15;3.20;;;;;;;;;;5148972;27;20034;-74
2022/12/26 15:27:00;;;;;;;12.80;3.85;;;;;;;;;;5150424;27;20027;-70
2022/12/26 15:29:43;;;;;;;7.43;3.25;;;;;;;;;;5150202;27;20019;-71
2022/12/26 15:32:38;;;;;;;9.90;3.53;;;;;;;;;;5148748;27;20038;-73
2022/12/26 15:35:21;;;;;;;9.75;3.55;;;;;;;;;;5135955;27;20438;-77
2022/12/26 15:38:16;;;;;;;12.07;3.80;;;;;;;;;;5150370;27;20038;-76
2022/12/26 15:41:01;;;;;;;7.65;3.45;;;;;;;;;;5148911;27;20026;-74
2022/12/26 15:43:52;;;;;;;9.15;3.35;;;;;;;;;;5151046;27;20561;-75
2022/12/26 15:46:19;;;;;;;;;;;;;;;;;;5155166;27;20065;-70
2022/12/26 15:49:07;;;;;;;15.50;7.35;;;;;;;;;;5154800;27;19911;-73
2022/12/26 15:52:08;;;;;;;15.07;6.88;;;;;;;;;;5153957;27;20014;-72
2022/12/26 15:54:52;;;;;;;17.85;8.15;;;;;;;;;;5151742;27;20690;-73
2022/12/26 15:57:37;;;;;;;18.80;7.82;;;;;;;;;;5154120;27;20019;-72
2022/12/26 16:00:11;;;;;;;17.05;7.00;;;;;;;;;;5154117;27;20571;-73
2022/12/26 16:02:43;;;;;;;14.63;6.20;;;;;;;;;;5153735;27;20038;-75
2022/12/26 16:05:17;;;;;;;13.88;5.70;;;;;;;;;;5153215;27;20027;-73
2022/12/26 16:08:10;;;;;;;15.43;5.50;;;;;;;;;;5153584;27;20046;-75
2022/12/26 16:10:36;;;;;;;16.23;5.50;;;;;;;;;;5153535;27;20023;-75
2022/12/26 16:13:11;;;;;;;14.45;4.97;;;;;;;;;;5152240;27;20014;-76
2022/12/26 16:16:04;;;;;;;13.05;4.50;;;;;;;;;;5153706;27;20103;-75
2022/12/26 16:18:31;;;;;;;11.35;4.32;;;;;;;;;;5153301;27;20022;-72
2022/12/26 16:23:52;;;;;;;11.77;4.72;;;;;;;;;;5153153;27;20033;-74
2022/12/26 16:26:25;;;;;;;12.77;4.53;;;;;;;;;;5153272;27;20030;-71
2022/12/26 16:28:51;;;;;;;11.50;4.53;;;;;;;;;;5153511;27;20019;-71
2022/12/26 16:31:23;;;;;;;10.38;4.82;;;;;;;;;;5153176;27;20026;-72
2022/12/26 16:33:50;;;;;;;11.82;4.88;;;;;;;;;;5153238;27;20035;-71
2022/12/26 16:36:27;;;;;;;9.18;4.57;;;;;;;;;;5152934;27;20035;-72
2022/12/26 16:38:53;;;;;;;9.50;4.75;;;;;;;;;;5153238;27;20023;-71
2022/12/26 16:41:21;;;;;;;9.27;4.50;;;;;;;;;;5152853;27;20026;-72
2022/12/26 16:43:47;;;;;;;13.13;5.20;;;;;;;;;;5152886;27;20042;-72
2022/12/26 16:46:13;;;;;;;13.55;6.07;;;;;;;;;;5153025;27;20398;-72
2022/12/26 16:48:40;;;;;;;14.77;7.97;;;;;;;;;;5152400;27;20026;-74
2022/12/26 16:51:32;;;;;;;16.67;7.68;;;;;;;;;;5152954;27;20087;-72
2022/12/26 16:54:14;;;;;;;15.90;6.28;;;;;;;;;;5153047;27;20031;-77
2022/12/26 16:56:40;;;;;;;12.18;6.07;;;;;;;;;;5153851;27;20034;-74
2022/12/26 16:59:12;;;;;;;13.20;6.25;;;;;;;;;;5155231;27;20188;-77
2022/12/26 17:01:38;;;;;;;18.35;8.98;;;;;;;;;;5154197;27;20030;-72
2022/12/26 17:04:15;;;;;;;19.90;9.30;;;;;;;;;;5155643;27;20050;-74
2022/12/26 17:06:49;;;;;;;20.05;11.35;;;;;;;;;;5164272;27;20019;-71
2022/12/26 17:09:16;;;;;;;27.25;14.65;;;;;;;;;;5164640;27;20029;-77
2022/12/26 17:12:02;;;;;;;26.90;13.15;;;;;;;;;;5162504;27;20033;-73
2022/12/26 17:14:32;;;;;;;25.25;12.20;;;;;;;;;;5163051;27;20346;-73
2022/12/26 17:17:00;;;;;;;20.50;11.10;;;;;;;;;;5163828;27;20325;-74